Terminal Aerodrome Forecast
Issued by NWS

Home | Current Version | Previous Version | Text Only | Print | Product List | Glossary On
Versions: 1 2 3 4 5 6 7 8 9 10 11 12 13 14 15 16 17 18 19 20 21 22 23 24 25 26 27 28 29 30 31 32 33 34 35 36 37 38 39 40 41 42 43 44 45 46 47 48 49 50
725
FTUS43 KDDC 291234 AAB
TAFHYS
TAF AMD
KHYS 291234Z 2913/3012 07015G23KT P6SM OVC006
     FM291500 06017G27KT 3SM RA OVC003
     FM300000 05015G25KT 2SM RA OVC003
     FM300600 03010G20KT 4SM -SHRA OVC003
     FM300900 03010KT 5SM -SHRA OVC003=

USA.gov is the U.S. government's official web portal to all federal, state and local government web resources and services.